createdAt,value
2022-11-29T00:00:49.903Z,88.01
2022-11-29T00:03:16.632Z,88.38
2022-11-29T00:05:43.409Z,88.31
2022-11-29T00:08:09.998Z,88.41
2022-11-29T00:10:37.596Z,88.72
2022-11-29T00:13:04.798Z,88.25
2022-11-29T00:15:36.622Z,88.23
2022-11-29T00:18:03.562Z,88.49
2022-11-29T00:20:30.275Z,88.42
2022-11-29T00:22:56.900Z,88.45
2022-11-29T00:25:23.851Z,89.10
2022-11-29T00:27:51.667Z,89.01
2022-11-29T00:30:19.819Z,89.00
2022-11-29T00:32:46.617Z,89.35
2022-11-29T00:35:13.819Z,89.33
2022-11-29T00:37:40.383Z,89.64
2022-11-29T00:40:07.635Z,90.15
2022-11-29T00:42:34.197Z,90.49
2022-11-29T00:45:00.737Z,91.01
2022-11-29T00:47:27.220Z,91.38
2022-11-29T00:49:53.953Z,91.23
2022-11-29T00:52:20.523Z,91.60
2022-11-29T00:54:47.135Z,91.57
2022-11-29T00:57:13.832Z,91.71
2022-11-29T00:59:40.512Z,92.09
2022-11-29T01:02:07.182Z,91.44
2022-11-29T01:04:34.035Z,91.46
2022-11-29T01:07:00.562Z,91.92
2022-11-29T01:09:27.082Z,91.21
2022-11-29T01:11:53.649Z,91.62
2022-11-29T01:14:20.202Z,90.68
2022-11-29T01:16:46.807Z,90.94
2022-11-29T01:19:13.407Z,90.64
2022-11-29T01:21:40.119Z,91.21
2022-11-29T01:24:06.707Z,91.16
2022-11-29T01:26:33.594Z,91.82
2022-11-29T01:31:44.844Z,92.16
2022-11-29T01:34:11.510Z,92.12
2022-11-29T01:36:38.028Z,92.48
2022-11-29T01:39:05.907Z,92.00
2022-11-29T01:41:35.250Z,91.98
2022-11-29T01:44:14.047Z,91.79
2022-11-29T01:46:43.335Z,91.86
2022-11-29T01:49:31.678Z,91.78
2022-11-29T01:51:59.858Z,91.80
2022-11-29T01:54:27.251Z,91.97
2022-11-29T01:56:54.168Z,92.02
2022-11-29T01:59:23.915Z,92.20
2022-11-29T02:01:52.049Z,92.20
2022-11-29T02:04:19.454Z,92.13
2022-11-29T02:06:46.425Z,92.15
2022-11-29T02:09:31.317Z,91.86
2022-11-29T02:12:14.455Z,91.97
2022-11-29T02:15:07.077Z,92.70
2022-11-29T02:17:44.271Z,92.30
2022-11-29T02:20:35.293Z,92.06
2022-11-29T02:23:37.356Z,92.46
2022-11-29T02:26:36.405Z,92.57
2022-11-29T02:29:29.660Z,92.32
2022-11-29T02:31:56.184Z,91.72
2022-11-29T02:34:37.873Z,92.45
2022-11-29T02:37:46.168Z,92.53
2022-11-29T02:40:51.190Z,92.02
2022-11-29T02:43:40.503Z,92.30
2022-11-29T02:46:34.882Z,92.25
2022-11-29T02:49:14.317Z,92.88
2022-11-29T02:51:55.633Z,93.37
2022-11-29T02:54:50.602Z,93.11
2022-11-29T02:57:33.329Z,93.20
2022-11-29T03:00:08.016Z,93.26
2022-11-29T03:02:40.848Z,92.67
2022-11-29T03:05:07.325Z,92.87
2022-11-29T03:07:39.582Z,92.58
2022-11-29T03:10:24.922Z,93.11
2022-11-29T03:12:54.208Z,93.17
2022-11-29T03:15:26.717Z,92.87
2022-11-29T03:17:59.300Z,93.02
2022-11-29T03:20:45.460Z,91.99
2022-11-29T03:23:33.857Z,92.97
2022-11-29T03:26:11.476Z,92.93
2022-11-29T03:29:07.792Z,92.78
2022-11-29T03:31:45.130Z,92.89
2022-11-29T03:34:42.043Z,92.82
2022-11-29T03:37:26.051Z,93.44
2022-11-29T03:40:02.356Z,93.30
2022-11-29T03:42:38.824Z,93.37
2022-11-29T03:45:10.800Z,93.12
2022-11-29T03:47:48.786Z,92.84
2022-11-29T03:50:22.390Z,92.96
2022-11-29T03:53:34.172Z,92.61
2022-11-29T03:56:03.152Z,92.49
2022-11-29T03:59:01.644Z,92.52
2022-11-29T04:01:45.491Z,92.70
2022-11-29T04:04:39.204Z,92.13
2022-11-29T04:07:47.431Z,92.53
2022-11-29T04:10:17.054Z,92.32
2022-11-29T04:13:14.779Z,92.13
2022-11-29T04:16:00.099Z,92.87
2022-11-29T04:19:04.554Z,93.29
2022-11-29T04:21:38.217Z,93.00
2022-11-29T04:24:35.773Z,93.12
2022-11-29T04:27:11.197Z,92.90
2022-11-29T04:30:02.287Z,93.17
2022-11-29T04:32:59.807Z,93.66
2022-11-29T04:35:56.944Z,94.87
2022-11-29T04:38:42.164Z,95.01
2022-11-29T04:41:17.896Z,95.21
2022-11-29T04:43:57.568Z,95.79
2022-11-29T04:47:06.050Z,95.88
2022-11-29T04:49:55.972Z,94.83
2022-11-29T04:52:41.379Z,94.73
2022-11-29T04:55:35.375Z,94.96
2022-11-29T04:58:29.718Z,94.55
2022-11-29T05:00:59.157Z,94.29
2022-11-29T05:03:35.987Z,93.75
2022-11-29T05:06:30.448Z,94.24
2022-11-29T05:09:10.433Z,93.55
2022-11-29T05:12:18.547Z,93.02
2022-11-29T05:15:24.729Z,93.09
2022-11-29T05:18:16.646Z,94.13
2022-11-29T05:21:30.736Z,94.08
2022-11-29T05:24:03.431Z,94.31
2022-11-29T05:26:38.472Z,94.41
2022-11-29T05:29:16.947Z,94.69
2022-11-29T05:32:21.149Z,94.13
2022-11-29T05:35:01.127Z,94.50
2022-11-29T05:37:49.589Z,94.72
2022-11-29T05:40:52.200Z,93.87
2022-11-29T05:43:38.854Z,93.53
2022-11-29T05:46:18.649Z,93.44
2022-11-29T05:49:20.030Z,92.91
2022-11-29T05:52:24.341Z,93.54
2022-11-29T05:55:11.832Z,93.91
2022-11-29T05:57:57.049Z,94.12
2022-11-29T06:00:26.999Z,94.08
2022-11-29T06:03:19.196Z,94.75
2022-11-29T06:05:57.679Z,94.13
2022-11-29T06:08:39.988Z,93.97
2022-11-29T06:11:17.786Z,93.18
2022-11-29T06:14:01.109Z,92.85
2022-11-29T06:16:50.950Z,93.34
2022-11-29T06:20:00.193Z,94.21
2022-11-29T06:22:50.456Z,93.91
2022-11-29T06:25:50.891Z,93.59
2022-11-29T06:28:26.583Z,93.62
2022-11-29T06:30:55.891Z,93.90
2022-11-29T06:33:28.888Z,93.55
2022-11-29T06:36:16.628Z,92.84
2022-11-29T06:38:43.469Z,92.31
2022-11-29T06:41:18.377Z,93.21
2022-11-29T06:43:45.204Z,93.98
2022-11-29T06:46:47.198Z,93.50
2022-11-29T06:49:25.800Z,93.33
2022-11-29T06:51:58.528Z,92.95
2022-11-29T06:54:39.018Z,92.25
2022-11-29T06:57:22.192Z,93.16
2022-11-29T06:59:54.888Z,93.83
2022-11-29T07:02:35.314Z,93.17
2022-11-29T07:05:20.458Z,92.74
2022-11-29T07:07:48.454Z,92.72
2022-11-29T07:10:18.470Z,92.36
2022-11-29T07:12:47.506Z,92.98
2022-11-29T07:15:20.350Z,93.63
2022-11-29T07:18:25.112Z,92.92
2022-11-29T07:21:09.809Z,92.11
2022-11-29T07:23:52.712Z,93.19
2022-11-29T07:26:29.413Z,92.88
2022-11-29T07:29:01.957Z,92.71
2022-11-29T07:31:48.664Z,92.98
2022-11-29T07:34:25.948Z,92.55
2022-11-29T07:37:23.779Z,91.95
2022-11-29T07:40:02.746Z,91.59
2022-11-29T07:43:07.025Z,90.86
2022-11-29T07:45:37.890Z,90.45
2022-11-29T07:48:05.248Z,91.01
2022-11-29T07:50:31.837Z,91.33
2022-11-29T07:52:59.987Z,92.38
2022-11-29T07:55:27.373Z,92.49
2022-11-29T07:57:53.915Z,91.85
2022-11-29T08:00:21.507Z,91.46
2022-11-29T08:02:49.524Z,90.24
2022-11-29T08:05:16.577Z,90.14
2022-11-29T08:07:43.717Z,89.16
2022-11-29T08:10:14.412Z,89.33
2022-11-29T08:12:50.177Z,89.25
2022-11-29T08:15:18.583Z,88.75
2022-11-29T08:17:45.311Z,87.47
2022-11-29T08:20:13.978Z,84.38
2022-11-29T08:22:40.558Z,85.17
2022-11-29T08:25:08.257Z,84.05
2022-11-29T08:27:36.544Z,83.87
2022-11-29T08:30:04.270Z,82.95
2022-11-29T08:32:30.781Z,82.87
2022-11-29T08:34:57.569Z,81.57
2022-11-29T08:37:24.094Z,80.91
2022-11-29T08:39:50.613Z,81.93
2022-11-29T08:42:17.121Z,81.46
2022-11-29T08:44:43.932Z,81.95
2022-11-29T08:47:29.292Z,80.91
2022-11-29T08:50:01.566Z,81.79
2022-11-29T08:52:47.661Z,84.23
2022-11-29T08:55:14.498Z,82.77
2022-11-29T08:57:41.395Z,83.96
2022-11-29T09:00:09.294Z,83.62
2022-11-29T09:02:37.129Z,84.20
2022-11-29T09:05:04.926Z,84.42
2022-11-29T09:07:31.497Z,83.08
2022-11-29T09:09:58.010Z,84.57
2022-11-29T09:12:24.696Z,83.80
2022-11-29T09:14:51.242Z,82.10
2022-11-29T09:17:17.768Z,80.79
2022-11-29T09:19:44.239Z,80.23
2022-11-29T09:22:10.931Z,81.11
2022-11-29T09:24:37.407Z,79.81
2022-11-29T09:27:04.458Z,80.62
2022-11-29T09:29:31.141Z,82.32
2022-11-29T09:31:57.792Z,82.00
2022-11-29T09:34:24.665Z,81.72
2022-11-29T09:36:51.600Z,80.56
2022-11-29T09:39:18.157Z,82.73
2022-11-29T09:42:23.940Z,81.10
2022-11-29T09:45:01.899Z,83.18
2022-11-29T09:47:33.105Z,83.75
2022-11-29T09:50:24.594Z,82.99
2022-11-29T09:52:57.201Z,83.49
2022-11-29T09:55:48.486Z,81.90
2022-11-29T09:58:23.168Z,81.70
2022-11-29T10:00:53.441Z,82.27
2022-11-29T10:03:25.540Z,82.09
2022-11-29T10:06:01.020Z,82.06
2022-11-29T10:08:38.382Z,83.18
2022-11-29T10:11:28.256Z,82.08
2022-11-29T10:14:05.945Z,83.29
2022-11-29T10:17:14.141Z,84.04
2022-11-29T10:19:50.810Z,83.53
2022-11-29T10:22:21.462Z,82.32
2022-11-29T10:24:52.330Z,82.99
2022-11-29T10:27:23.217Z,82.04
2022-11-29T10:29:51.280Z,79.91
2022-11-29T10:32:21.372Z,82.01
2022-11-29T10:34:49.504Z,81.54
2022-11-29T10:37:20.918Z,80.28
2022-11-29T10:39:50.770Z,79.63
2022-11-29T10:42:45.528Z,79.01
2022-11-29T10:45:24.688Z,77.68
2022-11-29T10:47:53.861Z,76.51
2022-11-29T10:50:26.496Z,79.97
2022-11-29T10:53:01.394Z,79.57
2022-11-29T10:55:34.915Z,78.16
2022-11-29T10:58:22.068Z,79.50
2022-11-29T11:00:58.888Z,78.78
2022-11-29T11:03:33.825Z,79.68
2022-11-29T11:06:03.022Z,78.77
2022-11-29T11:08:31.541Z,78.60
2022-11-29T11:11:01.756Z,81.68
2022-11-29T11:13:31.103Z,83.05
2022-11-29T11:16:19.529Z,84.16
2022-11-29T11:18:48.026Z,81.53
2022-11-29T11:21:18.597Z,81.73
2022-11-29T11:23:53.477Z,79.73
2022-11-29T11:26:20.420Z,80.28
2022-11-29T11:28:46.846Z,79.12
2022-11-29T11:31:14.144Z,79.20
2022-11-29T11:33:43.046Z,77.86
2022-11-29T11:36:21.583Z,79.02
2022-11-29T11:39:11.611Z,79.40
2022-11-29T11:42:00.938Z,77.74
2022-11-29T11:44:50.033Z,75.02
2022-11-29T11:47:29.493Z,74.96
2022-11-29T11:50:05.085Z,73.37
2022-11-29T11:52:43.823Z,74.72
2022-11-29T11:55:21.449Z,74.52
2022-11-29T11:58:14.367Z,74.62
2022-11-29T12:01:02.797Z,71.69
2022-11-29T12:03:49.351Z,69.84
2022-11-29T12:06:43.933Z,72.81
2022-11-29T12:09:28.743Z,75.14
2022-11-29T12:12:10.454Z,73.27
2022-11-29T12:15:00.006Z,73.66
2022-11-29T12:17:46.609Z,71.70
2022-11-29T12:20:13.363Z,73.55
2022-11-29T12:22:48.674Z,73.19
2022-11-29T12:25:21.838Z,71.11
2022-11-29T12:27:51.759Z,72.16
2022-11-29T12:30:19.438Z,74.56
2022-11-29T12:33:06.945Z,75.87
2022-11-29T12:35:50.133Z,76.73
2022-11-29T12:38:32.120Z,77.14
2022-11-29T12:41:01.668Z,75.82
2022-11-29T12:43:45.601Z,72.23
2022-11-29T12:46:22.903Z,77.47
2022-11-29T12:49:06.582Z,75.78
2022-11-29T12:52:01.271Z,76.63
2022-11-29T12:54:39.890Z,77.12
2022-11-29T12:57:23.830Z,78.29
2022-11-29T13:00:07.723Z,76.81
2022-11-29T13:03:04.146Z,76.20
2022-11-29T13:06:01.533Z,76.17
2022-11-29T13:09:23.663Z,75.53
2022-11-29T13:11:55.811Z,75.46
2022-11-29T13:14:49.767Z,75.65
2022-11-29T13:17:48.750Z,76.46
2022-11-29T13:20:33.904Z,75.27
2022-11-29T13:23:08.858Z,73.41
2022-11-29T13:25:46.886Z,76.01
2022-11-29T13:28:33.049Z,73.08
2022-11-29T13:31:06.838Z,73.09
2022-11-29T13:34:01.841Z,73.06
2022-11-29T13:36:43.585Z,73.55
2022-11-29T13:39:41.048Z,73.63
2022-11-29T13:42:17.560Z,73.14
2022-11-29T13:44:50.176Z,72.27
2022-11-29T13:47:19.359Z,74.49
2022-11-29T13:49:52.856Z,74.50
2022-11-29T13:52:41.571Z,75.44
2022-11-29T13:55:23.281Z,74.04
2022-11-29T14:00:42.330Z,75.75
2022-11-29T14:03:24.202Z,76.10
2022-11-29T14:05:53.197Z,77.04
2022-11-29T14:08:54.485Z,77.61
2022-11-29T14:11:27.292Z,77.67
2022-11-29T14:14:01.113Z,76.79
2022-11-29T14:16:36.484Z,77.56
2022-11-29T14:19:21.089Z,77.64
2022-11-29T14:21:56.949Z,76.00
2022-11-29T14:24:32.513Z,75.58
2022-11-29T14:27:21.732Z,75.05
2022-11-29T14:29:52.693Z,75.36
2022-11-29T14:32:28.888Z,73.76
2022-11-29T14:35:02.063Z,73.74
2022-11-29T14:37:53.399Z,76.07
2022-11-29T14:40:40.156Z,75.94
2022-11-29T14:43:34.448Z,75.16
2022-11-29T14:46:08.375Z,75.41
2022-11-29T14:48:35.950Z,75.46
2022-11-29T14:51:16.168Z,77.61
2022-11-29T14:53:46.001Z,76.60
2022-11-29T14:56:35.275Z,75.65
2022-11-29T14:59:41.617Z,75.00
2022-11-29T15:02:29.628Z,76.91
2022-11-29T15:04:57.464Z,77.46
2022-11-29T15:07:29.468Z,78.73
2022-11-29T15:10:05.306Z,78.73
2022-11-29T15:12:37.205Z,79.90
2022-11-29T15:15:10.156Z,80.97
2022-11-29T15:17:55.483Z,82.03
2022-11-29T15:20:37.686Z,82.41
2022-11-29T15:23:14.653Z,82.45
2022-11-29T15:25:53.412Z,83.13
2022-11-29T15:28:28.319Z,83.57
2022-11-29T15:31:08.244Z,83.12
2022-11-29T15:33:39.093Z,83.33
2022-11-29T15:36:08.874Z,83.70
2022-11-29T15:38:50.038Z,84.51
2022-11-29T15:41:30.374Z,84.58
2022-11-29T15:44:07.452Z,84.55
2022-11-29T15:46:35.929Z,84.23
2022-11-29T15:49:37.947Z,84.69
2022-11-29T15:52:14.441Z,84.27
2022-11-29T15:54:51.249Z,82.79
2022-11-29T15:57:36.277Z,85.32
2022-11-29T16:00:06.628Z,84.11
2022-11-29T16:02:40.948Z,84.47
2022-11-29T16:05:20.520Z,85.45
2022-11-29T16:07:50.237Z,85.66
2022-11-29T16:10:19.923Z,84.68
2022-11-29T16:13:02.575Z,84.96
2022-11-29T16:15:30.965Z,84.36
2022-11-29T16:18:11.400Z,84.84
2022-11-29T16:20:38.029Z,85.40
2022-11-29T16:23:15.284Z,85.67
2022-11-29T16:26:14.776Z,85.64
2022-11-29T16:28:48.628Z,86.17
2022-11-29T16:31:31.041Z,85.39
2022-11-29T16:34:05.730Z,86.21
2022-11-29T16:36:32.363Z,86.44
2022-11-29T16:39:07.470Z,85.88
2022-11-29T16:41:38.507Z,85.45
2022-11-29T16:44:26.409Z,85.86
2022-11-29T16:47:30.626Z,87.83
2022-11-29T16:50:03.198Z,87.16
2022-11-29T16:52:32.650Z,86.84
2022-11-29T16:54:59.347Z,87.16
2022-11-29T16:57:27.449Z,86.24
2022-11-29T16:59:54.048Z,85.84
2022-11-29T17:02:20.739Z,85.81
2022-11-29T17:04:47.738Z,86.19
2022-11-29T17:07:28.283Z,87.25
2022-11-29T17:09:55.831Z,86.02
2022-11-29T17:12:22.436Z,86.41
2022-11-29T17:14:49.077Z,85.66
2022-11-29T17:17:17.656Z,85.94
2022-11-29T17:19:44.906Z,84.57
2022-11-29T17:22:12.251Z,84.11
2022-11-29T17:24:43.593Z,84.25
2022-11-29T17:27:14.210Z,83.91
2022-11-29T17:29:41.057Z,84.21
2022-11-29T17:32:07.690Z,84.21
2022-11-29T17:34:34.603Z,82.69
2022-11-29T17:37:01.204Z,83.88
2022-11-29T17:39:27.757Z,84.64
2022-11-29T17:41:54.486Z,84.60
2022-11-29T17:44:21.250Z,84.81
2022-11-29T17:46:47.782Z,84.43
2022-11-29T17:49:14.358Z,85.11
2022-11-29T17:51:51.705Z,85.55
2022-11-29T17:54:19.535Z,84.98
2022-11-29T17:56:46.080Z,84.96
2022-11-29T17:59:12.850Z,84.85
2022-11-29T18:01:39.576Z,84.88
2022-11-29T18:04:08.523Z,84.74
2022-11-29T18:06:40.591Z,85.29
2022-11-29T18:09:09.095Z,86.03
2022-11-29T18:11:49.938Z,84.83
2022-11-29T18:14:23.725Z,84.88
2022-11-29T18:16:50.880Z,84.47
2022-11-29T18:19:20.252Z,84.66
2022-11-29T18:21:47.758Z,84.75
2022-11-29T18:24:14.492Z,85.17
2022-11-29T18:26:41.569Z,85.07
2022-11-29T18:29:08.540Z,86.20
2022-11-29T18:31:37.967Z,85.83
2022-11-29T18:34:07.254Z,85.79
2022-11-29T18:36:37.017Z,85.86
2022-11-29T18:39:09.404Z,86.54
2022-11-29T18:41:37.280Z,86.56
2022-11-29T18:44:07.281Z,87.08
2022-11-29T18:46:37.114Z,86.46
2022-11-29T18:49:05.965Z,86.26
2022-11-29T18:51:33.353Z,86.54
2022-11-29T18:54:01.035Z,87.21
2022-11-29T18:56:30.070Z,87.45
2022-11-29T18:59:04.759Z,86.60
2022-11-29T19:01:34.360Z,86.77
2022-11-29T19:04:01.751Z,86.83
2022-11-29T19:06:39.371Z,87.67
2022-11-29T19:09:11.239Z,88.26
2022-11-29T19:11:38.100Z,88.25
2022-11-29T19:14:11.121Z,88.24
2022-11-29T19:16:39.479Z,88.09
2022-11-29T19:19:07.645Z,88.97
2022-11-29T19:21:34.724Z,88.80
2022-11-29T19:24:03.730Z,89.14
2022-11-29T19:26:31.365Z,89.32
2022-11-29T19:29:00.067Z,89.44
2022-11-29T19:31:27.678Z,89.29
2022-11-29T19:33:55.222Z,89.74
2022-11-29T19:36:24.417Z,90.34
2022-11-29T19:38:53.955Z,89.73
2022-11-29T19:41:26.726Z,89.57
2022-11-29T19:43:53.890Z,90.14
2022-11-29T19:46:23.429Z,90.39
2022-11-29T19:48:52.384Z,90.00
2022-11-29T19:51:20.063Z,90.24
2022-11-29T19:53:47.356Z,90.47
2022-11-29T19:56:16.854Z,90.52
2022-11-29T19:58:44.494Z,91.05
2022-11-29T20:01:19.019Z,91.97
2022-11-29T20:03:46.323Z,91.91
2022-11-29T20:06:13.677Z,92.05
2022-11-29T20:08:41.006Z,92.23
2022-11-29T20:11:10.006Z,92.60
2022-11-29T20:13:41.167Z,92.12
2022-11-29T20:16:14.785Z,92.68
2022-11-29T20:18:48.956Z,93.39
2022-11-29T20:21:20.386Z,93.58
2022-11-29T20:23:47.424Z,93.20
2022-11-29T20:26:16.085Z,92.73
2022-11-29T20:28:44.134Z,92.42
2022-11-29T20:31:16.234Z,91.75
2022-11-29T20:33:44.025Z,92.82
2022-11-29T20:36:42.291Z,92.74
2022-11-29T20:39:44.952Z,92.58
2022-11-29T20:42:31.595Z,91.74
2022-11-29T20:45:04.233Z,91.65
2022-11-29T20:47:49.173Z,92.14
2022-11-29T20:50:23.686Z,93.08
2022-11-29T20:53:05.827Z,93.18
2022-11-29T20:55:32.681Z,93.92
2022-11-29T20:57:59.237Z,94.29
2022-11-29T21:00:25.827Z,95.07
2022-11-29T21:02:52.531Z,94.38
2022-11-29T21:05:19.071Z,94.35
2022-11-29T21:07:46.697Z,94.85
2022-11-29T21:10:15.650Z,94.75
2022-11-29T21:12:45.635Z,94.45
2022-11-29T21:15:14.190Z,93.73
2022-11-29T21:17:42.596Z,93.99
2022-11-29T21:20:17.767Z,94.38
2022-11-29T21:22:52.899Z,94.28
2022-11-29T21:25:43.129Z,93.81
2022-11-29T21:28:14.267Z,93.60
2022-11-29T21:30:42.002Z,94.08
2022-11-29T21:33:09.565Z,94.48
2022-11-29T21:35:39.662Z,94.13
2022-11-29T21:38:10.857Z,93.95
2022-11-29T21:40:37.345Z,94.51
2022-11-29T21:43:03.987Z,94.35
2022-11-29T21:45:30.510Z,94.04
2022-11-29T21:48:00.577Z,94.83
2022-11-29T21:50:27.345Z,94.30
2022-11-29T21:52:53.907Z,93.47
2022-11-29T21:55:20.518Z,93.80
2022-11-29T21:57:47.193Z,93.73
2022-11-29T22:00:14.288Z,93.77
2022-11-29T22:02:41.020Z,93.90
2022-11-29T22:05:09.718Z,93.71
2022-11-29T22:07:36.363Z,93.34
2022-11-29T22:10:09.974Z,93.05
2022-11-29T22:12:49.347Z,93.64
2022-11-29T22:15:22.929Z,93.63
2022-11-29T22:17:51.409Z,94.36
2022-11-29T22:20:17.951Z,94.27
2022-11-29T22:22:45.294Z,93.70
2022-11-29T22:25:11.929Z,94.73
2022-11-29T22:27:38.473Z,94.32
2022-11-29T22:30:05.826Z,93.69
2022-11-29T22:32:32.475Z,93.88
2022-11-29T22:34:59.019Z,94.26
2022-11-29T22:37:25.623Z,94.26
2022-11-29T22:39:52.320Z,94.30
2022-11-29T22:42:18.864Z,94.57
2022-11-29T22:44:45.756Z,96.04
2022-11-29T22:47:12.932Z,95.42
2022-11-29T22:49:39.397Z,94.87
2022-11-29T22:52:05.893Z,95.08
2022-11-29T22:54:32.825Z,95.52
2022-11-29T22:56:59.323Z,95.91
2022-11-29T22:59:25.791Z,95.72
2022-11-29T23:01:52.538Z,96.13
2022-11-29T23:04:19.071Z,95.88
2022-11-29T23:06:46.168Z,96.15
2022-11-29T23:09:22.560Z,96.06
2022-11-29T23:11:55.807Z,96.66
2022-11-29T23:14:23.452Z,96.70
2022-11-29T23:16:50.445Z,96.66
2022-11-29T23:19:17.393Z,96.68
2022-11-29T23:21:45.826Z,96.23
2022-11-29T23:24:13.595Z,96.40
2022-11-29T23:26:43.309Z,95.82
2022-11-29T23:29:13.076Z,96.20
2022-11-29T23:31:40.004Z,95.81
2022-11-29T23:34:06.987Z,95.98
2022-11-29T23:36:33.908Z,95.98
2022-11-29T23:39:00.913Z,95.74
2022-11-29T23:41:27.528Z,95.18
2022-11-29T23:43:54.125Z,95.33
2022-11-29T23:46:23.196Z,94.95
2022-11-29T23:48:50.221Z,94.67
2022-11-29T23:51:17.489Z,94.81
2022-11-29T23:53:44.612Z,95.63
2022-11-29T23:56:16.439Z,95.20
2022-11-29T23:58:43.883Z,96.15
